Terminal Aerodrome Forecast
Issued by NWS

Current Version | Previous Version | Text Only | Print | Product List | Glossary On
Versions: 1 2 3 4 5 6 7 8 9 10 11 12 13 14 15 16 17
241
FTUS46 KLOX 220004 RRA
TAFOXR
TAF
KOXR 220004Z 2200/2224 27012KT P6SM SCT250
     FM220400 29005KT P6SM SCT250
     FM221000 VRB03KT 6SM BR VCFG SCT003
     FM221600 25005KT P6SM FEW007
     FM222100 26011KT P6SM SKC=

USA.gov is the U.S. government's official web portal to all federal, state and local government web resources and services.